sensor_id;sensor_type;location;lat;lon;timestamp;pressure;altitude;pressure_sealevel;temperature;humidity
58977;BME280;49334;37.766;-121.890;2023-05-09T00:00:11;99703.18;;;18.49;33.31
58977;BME280;49334;37.766;-121.890;2023-05-09T00:02:40;99692.71;;;17.87;35.64
58977;BME280;49334;37.766;-121.890;2023-05-09T00:05:10;99697.56;;;17.45;36.78
58977;BME280;49334;37.766;-121.890;2023-05-09T00:07:40;99700.59;;;16.77;37.87
58977;BME280;49334;37.766;-121.890;2023-05-09T00:10:10;99698.73;;;17.55;35.30
58977;BME280;49334;37.766;-121.890;2023-05-09T00:12:42;99695.40;;;17.22;35.56
58977;BME280;49334;37.766;-121.890;2023-05-09T00:15:12;99698.17;;;17.06;36.80
58977;BME280;49334;37.766;-121.890;2023-05-09T00:17:42;99690.38;;;17.19;35.89
58977;BME280;49334;37.766;-121.890;2023-05-09T00:20:12;99684.06;;;17.70;34.56
58977;BME280;49334;37.766;-121.890;2023-05-09T00:22:42;99683.97;;;18.61;33.18
58977;BME280;49334;37.766;-121.890;2023-05-09T00:25:12;99683.68;;;18.13;33.76
58977;BME280;49334;37.766;-121.890;2023-05-09T00:27:41;99681.67;;;19.12;32.49
58977;BME280;49334;37.766;-121.890;2023-05-09T00:30:11;99687.82;;;18.56;33.77
58977;BME280;49334;37.766;-121.890;2023-05-09T00:32:40;99680.11;;;17.37;35.49
58977;BME280;49334;37.766;-121.890;2023-05-09T00:35:10;99679.98;;;17.69;34.59
58977;BME280;49334;37.766;-121.890;2023-05-09T00:37:41;99689.23;;;17.24;35.56
58977;BME280;49334;37.766;-121.890;2023-05-09T00:40:13;99682.15;;;17.85;34.69
58977;BME280;49334;37.766;-121.890;2023-05-09T00:42:41;99688.73;;;18.26;34.32
58977;BME280;49334;37.766;-121.890;2023-05-09T00:45:11;99683.47;;;17.15;36.37
58977;BME280;49334;37.766;-121.890;2023-05-09T00:47:40;99683.36;;;17.52;34.98
58977;BME280;49334;37.766;-121.890;2023-05-09T00:50:10;99685.55;;;18.13;33.86
58977;BME280;49334;37.766;-121.890;2023-05-09T00:52:40;99687.88;;;17.68;35.67
58977;BME280;49334;37.766;-121.890;2023-05-09T00:55:10;99692.66;;;18.39;34.45
58977;BME280;49334;37.766;-121.890;2023-05-09T00:57:40;99688.37;;;17.94;35.05
58977;BME280;49334;37.766;-121.890;2023-05-09T01:00:11;99685.72;;;17.57;35.50
58977;BME280;49334;37.766;-121.890;2023-05-09T01:02:40;99678.68;;;17.05;35.93
58977;BME280;49334;37.766;-121.890;2023-05-09T01:05:10;99677.62;;;16.89;36.72
58977;BME280;49334;37.766;-121.890;2023-05-09T01:07:47;99677.45;;;16.79;36.56
58977;BME280;49334;37.766;-121.890;2023-05-09T01:10:25;99680.05;;;16.51;37.35
58977;BME280;49334;37.766;-121.890;2023-05-09T01:13:05;99676.30;;;16.48;36.62
58977;BME280;49334;37.766;-121.890;2023-05-09T01:15:44;99675.17;;;17.82;35.24
58977;BME280;49334;37.766;-121.890;2023-05-09T01:18:20;99673.80;;;18.35;34.51
58977;BME280;49334;37.766;-121.890;2023-05-09T01:20:56;99675.81;;;16.77;36.51
58977;BME280;49334;37.766;-121.890;2023-05-09T01:25:52;99674.01;;;17.44;35.95
58977;BME280;49334;37.766;-121.890;2023-05-09T01:28:43;99676.34;;;17.83;34.32
58977;BME280;49334;37.766;-121.890;2023-05-09T01:31:20;99678.02;;;16.50;36.68
58977;BME280;49334;37.766;-121.890;2023-05-09T01:33:55;99676.62;;;16.76;36.67
58977;BME280;49334;37.766;-121.890;2023-05-09T01:36:28;99674.24;;;17.37;35.58
58977;BME280;49334;37.766;-121.890;2023-05-09T01:38:58;99675.43;;;16.74;36.52
58977;BME280;49334;37.766;-121.890;2023-05-09T01:41:30;99674.43;;;17.00;37.14
58977;BME280;49334;37.766;-121.890;2023-05-09T01:44:03;99681.58;;;15.23;41.30
58977;BME280;49334;37.766;-121.890;2023-05-09T01:46:34;99677.09;;;15.65;40.06
58977;BME280;49334;37.766;-121.890;2023-05-09T01:49:03;99672.15;;;15.54;39.85
58977;BME280;49334;37.766;-121.890;2023-05-09T01:51:35;99675.20;;;16.06;38.88
58977;BME280;49334;37.766;-121.890;2023-05-09T01:54:06;99674.20;;;16.38;38.29
58977;BME280;49334;37.766;-121.890;2023-05-09T01:56:36;99676.17;;;16.96;37.81
58977;BME280;49334;37.766;-121.890;2023-05-09T01:59:07;99677.54;;;16.33;38.86
58977;BME280;49334;37.766;-121.890;2023-05-09T02:01:36;99682.21;;;14.69;41.28
58977;BME280;49334;37.766;-121.890;2023-05-09T02:04:07;99681.26;;;15.44;40.23
58977;BME280;49334;37.766;-121.890;2023-05-09T02:06:44;99685.82;;;15.78;40.30
58977;BME280;49334;37.766;-121.890;2023-05-09T02:09:13;99695.78;;;15.23;40.37
58977;BME280;49334;37.766;-121.890;2023-05-09T02:11:43;99700.22;;;15.18;40.15
58977;BME280;49334;37.766;-121.890;2023-05-09T02:14:12;99702.94;;;15.79;39.24
58977;BME280;49334;37.766;-121.890;2023-05-09T02:16:41;99709.71;;;15.34;39.87
58977;BME280;49334;37.766;-121.890;2023-05-09T02:19:10;99711.24;;;15.58;39.51
58977;BME280;49334;37.766;-121.890;2023-05-09T02:21:40;99708.57;;;14.71;41.19
58977;BME280;49334;37.766;-121.890;2023-05-09T02:24:09;99712.56;;;13.91;42.41
58977;BME280;49334;37.766;-121.890;2023-05-09T02:26:38;99702.91;;;15.82;39.27
58977;BME280;49334;37.766;-121.890;2023-05-09T02:29:07;99708.81;;;15.66;39.46
58977;BME280;49334;37.766;-121.890;2023-05-09T02:31:40;99709.38;;;15.47;39.62
58977;BME280;49334;37.766;-121.890;2023-05-09T02:34:11;99711.33;;;17.11;36.67
58977;BME280;49334;37.766;-121.890;2023-05-09T02:36:41;99711.16;;;17.06;36.36
58977;BME280;49334;37.766;-121.890;2023-05-09T02:39:10;99717.59;;;17.14;35.98
58977;BME280;49334;37.766;-121.890;2023-05-09T02:41:39;99721.95;;;16.60;37.08
58977;BME280;49334;37.766;-121.890;2023-05-09T02:44:15;99723.25;;;16.89;36.56
58977;BME280;49334;37.766;-121.890;2023-05-09T02:46:44;99722.50;;;16.40;37.06
58977;BME280;49334;37.766;-121.890;2023-05-09T02:49:12;99724.50;;;16.10;37.29
58977;BME280;49334;37.766;-121.890;2023-05-09T02:51:41;99726.21;;;16.25;37.61
58977;BME280;49334;37.766;-121.890;2023-05-09T02:54:11;99731.95;;;14.86;39.68
58977;BME280;49334;37.766;-121.890;2023-05-09T02:56:39;99731.51;;;15.88;38.04
58977;BME280;49334;37.766;-121.890;2023-05-09T02:59:10;99740.00;;;15.52;38.99
58977;BME280;49334;37.766;-121.890;2023-05-09T03:01:39;99742.94;;;15.15;38.58
58977;BME280;49334;37.766;-121.890;2023-05-09T03:04:08;99744.72;;;15.72;38.37
58977;BME280;49334;37.766;-121.890;2023-05-09T03:06:37;99747.07;;;15.73;37.62
58977;BME280;49334;37.766;-121.890;2023-05-09T03:09:06;99752.05;;;13.93;41.08
58977;BME280;49334;37.766;-121.890;2023-05-09T03:11:36;99747.72;;;15.27;38.30
58977;BME280;49334;37.766;-121.890;2023-05-09T03:14:05;99757.21;;;14.19;40.38
58977;BME280;49334;37.766;-121.890;2023-05-09T03:16:34;99755.79;;;13.85;40.95
58977;BME280;49334;37.766;-121.890;2023-05-09T03:19:05;99755.16;;;13.42;42.13
58977;BME280;49334;37.766;-121.890;2023-05-09T03:21:34;99750.17;;;14.79;40.04
58977;BME280;49334;37.766;-121.890;2023-05-09T03:24:06;99749.54;;;14.90;39.49
58977;BME280;49334;37.766;-121.890;2023-05-09T03:26:35;99753.55;;;14.53;39.44
58977;BME280;49334;37.766;-121.890;2023-05-09T03:29:04;99758.30;;;14.54;39.85
58977;BME280;49334;37.766;-121.890;2023-05-09T03:31:33;99760.64;;;14.29;40.51
58977;BME280;49334;37.766;-121.890;2023-05-09T03:34:02;99758.61;;;14.90;39.18
58977;BME280;49334;37.766;-121.890;2023-05-09T03:36:31;99759.69;;;16.29;36.83
58977;BME280;49334;37.766;-121.890;2023-05-09T03:39:01;99764.77;;;15.86;37.45
58977;BME280;49334;37.766;-121.890;2023-05-09T03:41:29;99772.69;;;14.58;39.11
58977;BME280;49334;37.766;-121.890;2023-05-09T03:43:58;99774.78;;;14.72;39.32
58977;BME280;49334;37.766;-121.890;2023-05-09T03:46:28;99773.19;;;15.56;37.63
58977;BME280;49334;37.766;-121.890;2023-05-09T03:48:56;99770.12;;;17.07;36.00
58977;BME280;49334;37.766;-121.890;2023-05-09T03:51:26;99767.36;;;17.21;35.61
58977;BME280;49334;37.766;-121.890;2023-05-09T03:53:55;99766.89;;;15.93;37.17
58977;BME280;49334;37.766;-121.890;2023-05-09T03:56:24;99769.41;;;15.52;38.37
58977;BME280;49334;37.766;-121.890;2023-05-09T03:58:53;99769.26;;;15.16;38.34
58977;BME280;49334;37.766;-121.890;2023-05-09T04:01:21;99770.98;;;15.01;38.73
58977;BME280;49334;37.766;-121.890;2023-05-09T04:03:50;99768.86;;;15.06;38.34
58977;BME280;49334;37.766;-121.890;2023-05-09T04:06:20;99767.49;;;15.82;37.63
58977;BME280;49334;37.766;-121.890;2023-05-09T04:08:49;99767.46;;;15.78;38.05
58977;BME280;49334;37.766;-121.890;2023-05-09T04:11:18;99775.25;;;14.15;40.51
58977;BME280;49334;37.766;-121.890;2023-05-09T04:13:48;99775.12;;;15.20;39.02
58977;BME280;49334;37.766;-121.890;2023-05-09T04:16:17;99781.08;;;13.49;41.58
58977;BME280;49334;37.766;-121.890;2023-05-09T04:18:46;99775.47;;;13.88;41.38
58977;BME280;49334;37.766;-121.890;2023-05-09T04:21:15;99775.18;;;14.79;39.92
58977;BME280;49334;37.766;-121.890;2023-05-09T04:23:45;99775.27;;;13.81;41.48
58977;BME280;49334;37.766;-121.890;2023-05-09T04:26:14;99772.10;;;14.71;40.43
58977;BME280;49334;37.766;-121.890;2023-05-09T04:28:44;99777.19;;;13.91;41.56
58977;BME280;49334;37.766;-121.890;2023-05-09T04:31:13;99781.84;;;14.19;42.34
58977;BME280;49334;37.766;-121.890;2023-05-09T04:33:41;99779.66;;;14.15;41.51
58977;BME280;49334;37.766;-121.890;2023-05-09T04:36:11;99778.63;;;14.41;40.72
58977;BME280;49334;37.766;-121.890;2023-05-09T04:38:41;99774.77;;;14.55;40.54
58977;BME280;49334;37.766;-121.890;2023-05-09T04:41:10;99773.59;;;15.17;39.89
58977;BME280;49334;37.766;-121.890;2023-05-09T04:43:39;99777.42;;;14.09;41.37
58977;BME280;49334;37.766;-121.890;2023-05-09T04:46:08;99782.46;;;12.37;44.25
58977;BME280;49334;37.766;-121.890;2023-05-09T04:48:37;99787.28;;;13.43;42.79
58977;BME280;49334;37.766;-121.890;2023-05-09T04:51:06;99784.62;;;14.78;40.99
58977;BME280;49334;37.766;-121.890;2023-05-09T04:53:35;99780.69;;;14.95;39.61
58977;BME280;49334;37.766;-121.890;2023-05-09T04:56:05;99788.11;;;12.53;44.20
58977;BME280;49334;37.766;-121.890;2023-05-09T04:58:34;99792.94;;;12.27;44.52
58977;BME280;49334;37.766;-121.890;2023-05-09T05:01:04;99793.76;;;11.78;46.05
58977;BME280;49334;37.766;-121.890;2023-05-09T05:03:33;99797.09;;;13.31;43.68
58977;BME280;49334;37.766;-121.890;2023-05-09T05:06:02;99798.30;;;11.99;45.56
58977;BME280;49334;37.766;-121.890;2023-05-09T05:08:31;99801.16;;;11.42;46.65
58977;BME280;49334;37.766;-121.890;2023-05-09T05:11:01;99800.78;;;12.98;44.25
58977;BME280;49334;37.766;-121.890;2023-05-09T05:13:30;99798.70;;;14.70;41.25
58977;BME280;49334;37.766;-121.890;2023-05-09T05:15:59;99793.08;;;16.10;39.23
58977;BME280;49334;37.766;-121.890;2023-05-09T05:18:29;99795.68;;;14.52;41.01
58977;BME280;49334;37.766;-121.890;2023-05-09T05:20:58;99794.44;;;15.26;39.84
58977;BME280;49334;37.766;-121.890;2023-05-09T05:23:27;99799.19;;;12.81;44.14
58977;BME280;49334;37.766;-121.890;2023-05-09T05:25:55;99798.00;;;12.74;45.79
58977;BME280;49334;37.766;-121.890;2023-05-09T05:28:25;99795.93;;;13.67;43.92
58977;BME280;49334;37.766;-121.890;2023-05-09T05:30:54;99793.88;;;11.38;47.84
58977;BME280;49334;37.766;-121.890;2023-05-09T05:33:23;99790.17;;;13.53;44.50
58977;BME280;49334;37.766;-121.890;2023-05-09T05:35:52;99788.56;;;14.41;42.61
58977;BME280;49334;37.766;-121.890;2023-05-09T05:38:21;99792.25;;;13.41;44.14
58977;BME280;49334;37.766;-121.890;2023-05-09T05:40:49;99793.83;;;11.02;48.48
58977;BME280;49334;37.766;-121.890;2023-05-09T05:43:18;99789.14;;;11.98;47.60
58977;BME280;49334;37.766;-121.890;2023-05-09T05:45:47;99783.05;;;13.86;44.81
58977;BME280;49334;37.766;-121.890;2023-05-09T05:48:16;99780.57;;;12.97;45.14
58977;BME280;49334;37.766;-121.890;2023-05-09T05:50:45;99783.78;;;12.59;46.06
58977;BME280;49334;37.766;-121.890;2023-05-09T05:53:14;99786.22;;;13.51;44.87
58977;BME280;49334;37.766;-121.890;2023-05-09T05:55:43;99781.69;;;15.43;41.37
58977;BME280;49334;37.766;-121.890;2023-05-09T05:58:12;99779.57;;;14.72;42.15
58977;BME280;49334;37.766;-121.890;2023-05-09T06:00:42;99779.09;;;14.57;42.01
58977;BME280;49334;37.766;-121.890;2023-05-09T06:03:11;99775.78;;;13.01;44.93
58977;BME280;49334;37.766;-121.890;2023-05-09T06:05:43;99769.68;;;14.06;43.39
58977;BME280;49334;37.766;-121.890;2023-05-09T06:08:11;99774.22;;;14.03;43.25
58977;BME280;49334;37.766;-121.890;2023-05-09T06:10:40;99778.03;;;12.31;47.02
58977;BME280;49334;37.766;-121.890;2023-05-09T06:13:09;99776.36;;;11.04;49.78
58977;BME280;49334;37.766;-121.890;2023-05-09T06:15:39;99767.32;;;13.54;45.64
58977;BME280;49334;37.766;-121.890;2023-05-09T06:18:08;99764.93;;;12.70;48.27
58977;BME280;49334;37.766;-121.890;2023-05-09T06:20:37;99763.01;;;12.44;47.46
58977;BME280;49334;37.766;-121.890;2023-05-09T06:23:06;99759.50;;;12.23;48.45
58977;BME280;49334;37.766;-121.890;2023-05-09T06:25:35;99752.22;;;14.30;44.73
58977;BME280;49334;37.766;-121.890;2023-05-09T06:28:05;99746.66;;;15.08;43.33
58977;BME280;49334;37.766;-121.890;2023-05-09T06:30:34;99756.51;;;10.63;53.14
58977;BME280;49334;37.766;-121.890;2023-05-09T06:33:03;99750.84;;;13.09;48.28
58977;BME280;49334;37.766;-121.890;2023-05-09T06:35:33;99750.10;;;14.49;45.29
58977;BME280;49334;37.766;-121.890;2023-05-09T06:38:02;99745.60;;;13.81;46.42
58977;BME280;49334;37.766;-121.890;2023-05-09T06:40:31;99740.83;;;14.46;45.02
58977;BME280;49334;37.766;-121.890;2023-05-09T06:42:59;99737.86;;;14.56;45.08
58977;BME280;49334;37.766;-121.890;2023-05-09T06:45:27;99735.20;;;13.75;46.08
58977;BME280;49334;37.766;-121.890;2023-05-09T06:47:56;99729.69;;;15.27;43.13
58977;BME280;49334;37.766;-121.890;2023-05-09T06:50:25;99731.13;;;14.20;44.43
58977;BME280;49334;37.766;-121.890;2023-05-09T06:52:54;99733.63;;;14.22;44.85
58977;BME280;49334;37.766;-121.890;2023-05-09T06:55:23;99734.86;;;14.34;44.19
58977;BME280;49334;37.766;-121.890;2023-05-09T06:57:53;99737.80;;;14.44;44.40
58977;BME280;49334;37.766;-121.890;2023-05-09T07:00:22;99736.28;;;12.13;49.08
58977;BME280;49334;37.766;-121.890;2023-05-09T07:02:51;99730.92;;;14.05;45.26
58977;BME280;49334;37.766;-121.890;2023-05-09T07:05:20;99728.18;;;13.05;48.28
58977;BME280;49334;37.766;-121.890;2023-05-09T07:07:49;99732.23;;;12.96;47.72
58977;BME280;49334;37.766;-121.890;2023-05-09T07:10:17;99734.89;;;11.53;50.05
58977;BME280;49334;37.766;-121.890;2023-05-09T07:12:46;99738.85;;;12.14;49.56
58977;BME280;49334;37.766;-121.890;2023-05-09T07:15:15;99732.66;;;12.98;48.24
58977;BME280;49334;37.766;-121.890;2023-05-09T07:17:45;99731.48;;;14.47;45.31
58977;BME280;49334;37.766;-121.890;2023-05-09T07:20:14;99725.69;;;12.79;47.60
58977;BME280;49334;37.766;-121.890;2023-05-09T07:22:44;99716.33;;;14.73;44.35
58977;BME280;49334;37.766;-121.890;2023-05-09T07:25:13;99710.49;;;14.78;44.05
58977;BME280;49334;37.766;-121.890;2023-05-09T07:27:42;99717.12;;;12.00;48.99
58977;BME280;49334;37.766;-121.890;2023-05-09T07:30:11;99718.26;;;10.45;51.87
58977;BME280;49334;37.766;-121.890;2023-05-09T07:32:40;99715.61;;;12.71;47.74
58977;BME280;49334;37.766;-121.890;2023-05-09T07:35:09;99717.80;;;14.02;45.38
58977;BME280;49334;37.766;-121.890;2023-05-09T07:37:38;99716.87;;;14.21;44.51
58977;BME280;49334;37.766;-121.890;2023-05-09T07:40:08;99717.64;;;14.00;45.39
58977;BME280;49334;37.766;-121.890;2023-05-09T07:42:37;99715.03;;;11.28;49.57
58977;BME280;49334;37.766;-121.890;2023-05-09T07:45:07;99710.62;;;13.68;45.52
58977;BME280;49334;37.766;-121.890;2023-05-09T07:47:36;99716.74;;;10.85;50.48
58977;BME280;49334;37.766;-121.890;2023-05-09T07:50:06;99721.77;;;11.80;49.73
58977;BME280;49334;37.766;-121.890;2023-05-09T07:52:34;99719.75;;;13.22;46.08
58977;BME280;49334;37.766;-121.890;2023-05-09T07:55:03;99726.01;;;13.37;46.83
58977;BME280;49334;37.766;-121.890;2023-05-09T07:57:32;99728.47;;;12.97;46.44
58977;BME280;49334;37.766;-121.890;2023-05-09T08:00:01;99725.06;;;13.23;45.53
58977;BME280;49334;37.766;-121.890;2023-05-09T08:02:29;99725.76;;;11.97;49.78
58977;BME280;49334;37.766;-121.890;2023-05-09T08:04:58;99725.04;;;11.44;50.16
58977;BME280;49334;37.766;-121.890;2023-05-09T08:07:27;99717.96;;;13.31;45.98
58977;BME280;49334;37.766;-121.890;2023-05-09T08:09:55;99716.82;;;13.78;45.88
58977;BME280;49334;37.766;-121.890;2023-05-09T08:12:25;99716.51;;;12.06;47.60
58977;BME280;49334;37.766;-121.890;2023-05-09T08:14:53;99716.49;;;11.32;50.31
58977;BME280;49334;37.766;-121.890;2023-05-09T08:17:22;99717.61;;;11.63;49.21
58977;BME280;49334;37.766;-121.890;2023-05-09T08:19:50;99718.20;;;12.84;47.22
58977;BME280;49334;37.766;-121.890;2023-05-09T08:22:19;99715.91;;;13.38;45.69
58977;BME280;49334;37.766;-121.890;2023-05-09T08:24:48;99716.86;;;12.41;47.27
58977;BME280;49334;37.766;-121.890;2023-05-09T08:27:17;99715.67;;;13.11;46.64
58977;BME280;49334;37.766;-121.890;2023-05-09T08:29:45;99718.30;;;13.27;45.22
58977;BME280;49334;37.766;-121.890;2023-05-09T08:32:14;99718.99;;;11.82;47.28
58977;BME280;49334;37.766;-121.890;2023-05-09T08:34:43;99717.26;;;12.58;48.09
58977;BME280;49334;37.766;-121.890;2023-05-09T08:37:11;99717.63;;;12.43;47.83
58977;BME280;49334;37.766;-121.890;2023-05-09T08:39:40;99715.26;;;12.83;47.35
58977;BME280;49334;37.766;-121.890;2023-05-09T08:42:09;99711.26;;;13.02;46.75
58977;BME280;49334;37.766;-121.890;2023-05-09T08:44:39;99706.84;;;13.38;45.28
58977;BME280;49334;37.766;-121.890;2023-05-09T08:47:07;99704.05;;;11.09;50.81
58977;BME280;49334;37.766;-121.890;2023-05-09T08:49:36;99702.09;;;13.40;46.17
58977;BME280;49334;37.766;-121.890;2023-05-09T08:52:05;99701.44;;;14.04;45.27
58977;BME280;49334;37.766;-121.890;2023-05-09T08:54:33;99706.02;;;12.29;47.90
58977;BME280;49334;37.766;-121.890;2023-05-09T08:57:03;99701.10;;;13.53;45.84
58977;BME280;49334;37.766;-121.890;2023-05-09T08:59:34;99699.02;;;11.66;48.47
58977;BME280;49334;37.766;-121.890;2023-05-09T09:02:06;99701.95;;;11.10;50.81
58977;BME280;49334;37.766;-121.890;2023-05-09T09:04:35;99700.32;;;11.77;49.95
58977;BME280;49334;37.766;-121.890;2023-05-09T09:07:05;99698.58;;;13.50;46.09
58977;BME280;49334;37.766;-121.890;2023-05-09T09:09:34;99698.09;;;10.16;53.41
58977;BME280;49334;37.766;-121.890;2023-05-09T09:12:05;99691.75;;;11.90;49.51
58977;BME280;49334;37.766;-121.890;2023-05-09T09:14:37;99693.05;;;13.43;46.29
58977;BME280;49334;37.766;-121.890;2023-05-09T09:17:08;99693.28;;;12.57;46.91
58977;BME280;49334;37.766;-121.890;2023-05-09T09:19:40;99695.03;;;12.35;48.15
58977;BME280;49334;37.766;-121.890;2023-05-09T09:22:14;99692.01;;;13.72;44.99
58977;BME280;49334;37.766;-121.890;2023-05-09T09:24:42;99688.96;;;13.44;45.15
58977;BME280;49334;37.766;-121.890;2023-05-09T09:27:12;99683.60;;;14.06;44.94
58977;BME280;49334;37.766;-121.890;2023-05-09T09:29:41;99681.37;;;11.84;48.04
58977;BME280;49334;37.766;-121.890;2023-05-09T09:32:09;99675.68;;;13.89;44.88
58977;BME280;49334;37.766;-121.890;2023-05-09T09:34:38;99670.89;;;12.88;47.15
58977;BME280;49334;37.766;-121.890;2023-05-09T09:37:07;99672.84;;;13.90;44.55
58977;BME280;49334;37.766;-121.890;2023-05-09T09:39:35;99674.65;;;11.79;47.93
58977;BME280;49334;37.766;-121.890;2023-05-09T09:42:12;99673.52;;;11.13;49.85
58977;BME280;49334;37.766;-121.890;2023-05-09T09:44:40;99676.20;;;11.43;49.65
58977;BME280;49334;37.766;-121.890;2023-05-09T09:47:10;99675.49;;;12.50;48.66
58977;BME280;49334;37.766;-121.890;2023-05-09T09:49:45;99676.61;;;13.56;46.32
58977;BME280;49334;37.766;-121.890;2023-05-09T09:52:22;99673.64;;;11.27;49.53
58977;BME280;49334;37.766;-121.890;2023-05-09T09:54:53;99668.74;;;13.26;46.70
58977;BME280;49334;37.766;-121.890;2023-05-09T09:57:41;99663.26;;;13.82;44.89
58977;BME280;49334;37.766;-121.890;2023-05-09T10:00:10;99661.77;;;11.95;46.86
58977;BME280;49334;37.766;-121.890;2023-05-09T10:02:49;99656.46;;;13.02;45.86
58977;BME280;49334;37.766;-121.890;2023-05-09T10:05:21;99652.73;;;13.59;44.93
58977;BME280;49334;37.766;-121.890;2023-05-09T10:07:55;99653.83;;;13.56;45.85
58977;BME280;49334;37.766;-121.890;2023-05-09T10:10:27;99653.50;;;12.59;45.98
58977;BME280;49334;37.766;-121.890;2023-05-09T10:12:58;99648.66;;;14.17;44.20
58977;BME280;49334;37.766;-121.890;2023-05-09T10:15:29;99654.21;;;12.90;46.18
58977;BME280;49334;37.766;-121.890;2023-05-09T10:17:59;99650.90;;;13.33;45.91
58977;BME280;49334;37.766;-121.890;2023-05-09T10:20:28;99657.92;;;13.81;44.47
58977;BME280;49334;37.766;-121.890;2023-05-09T10:22:59;99658.14;;;13.69;44.98
58977;BME280;49334;37.766;-121.890;2023-05-09T10:25:36;99660.52;;;10.93;48.88
58977;BME280;49334;37.766;-121.890;2023-05-09T10:28:09;99663.19;;;12.74;46.01
58977;BME280;49334;37.766;-121.890;2023-05-09T10:30:48;99662.67;;;11.78;48.20
58977;BME280;49334;37.766;-121.890;2023-05-09T10:33:22;99656.84;;;13.36;44.80
58977;BME280;49334;37.766;-121.890;2023-05-09T10:35:52;99655.60;;;13.37;45.28
58977;BME280;49334;37.766;-121.890;2023-05-09T10:38:21;99655.45;;;13.48;45.14
58977;BME280;49334;37.766;-121.890;2023-05-09T10:40:50;99656.96;;;13.23;45.61
58977;BME280;49334;37.766;-121.890;2023-05-09T10:43:20;99661.58;;;11.82;47.11
58977;BME280;49334;37.766;-121.890;2023-05-09T10:45:49;99658.18;;;14.01;44.21
58977;BME280;49334;37.766;-121.890;2023-05-09T10:48:19;99663.10;;;13.54;44.33
58977;BME280;49334;37.766;-121.890;2023-05-09T10:50:49;99669.03;;;12.20;47.36
58977;BME280;49334;37.766;-121.890;2023-05-09T10:53:19;99667.58;;;11.51;47.80
58977;BME280;49334;37.766;-121.890;2023-05-09T10:55:51;99666.81;;;13.20;46.22
58977;BME280;49334;37.766;-121.890;2023-05-09T10:58:23;99670.57;;;11.29;48.88
58977;BME280;49334;37.766;-121.890;2023-05-09T11:00:54;99666.79;;;13.41;45.37
58977;BME280;49334;37.766;-121.890;2023-05-09T11:03:23;99669.03;;;13.75;44.40
58977;BME280;49334;37.766;-121.890;2023-05-09T11:05:54;99669.50;;;12.68;46.25
58977;BME280;49334;37.766;-121.890;2023-05-09T11:08:24;99662.97;;;13.73;44.68
58977;BME280;49334;37.766;-121.890;2023-05-09T11:10:54;99662.61;;;13.05;45.68
58977;BME280;49334;37.766;-121.890;2023-05-09T11:13:26;99661.00;;;12.14;46.24
58977;BME280;49334;37.766;-121.890;2023-05-09T11:16:16;99656.27;;;11.21;48.70
58977;BME280;49334;37.766;-121.890;2023-05-09T11:18:52;99648.09;;;12.08;47.58
58977;BME280;49334;37.766;-121.890;2023-05-09T11:21:21;99643.15;;;12.17;47.65
58977;BME280;49334;37.766;-121.890;2023-05-09T11:23:50;99644.28;;;13.28;46.32
58977;BME280;49334;37.766;-121.890;2023-05-09T11:26:21;99641.34;;;13.29;46.06
58977;BME280;49334;37.766;-121.890;2023-05-09T11:28:54;99636.38;;;12.94;46.82
58977;BME280;49334;37.766;-121.890;2023-05-09T11:31:22;99631.27;;;12.47;47.15
58977;BME280;49334;37.766;-121.890;2023-05-09T11:33:51;99633.32;;;12.63;47.15
58977;BME280;49334;37.766;-121.890;2023-05-09T11:36:21;99641.22;;;11.81;49.12
58977;BME280;49334;37.766;-121.890;2023-05-09T11:39:04;99645.10;;;13.24;46.52
58977;BME280;49334;37.766;-121.890;2023-05-09T11:41:42;99646.99;;;12.56;46.75
58977;BME280;49334;37.766;-121.890;2023-05-09T11:44:14;99650.10;;;10.85;49.49
58977;BME280;49334;37.766;-121.890;2023-05-09T11:46:43;99651.45;;;13.06;46.94
58977;BME280;49334;37.766;-121.890;2023-05-09T11:49:13;99648.50;;;10.56;51.26
58977;BME280;49334;37.766;-121.890;2023-05-09T11:51:42;99640.14;;;12.52;48.18
58977;BME280;49334;37.766;-121.890;2023-05-09T11:54:10;99636.75;;;13.14;45.99
58977;BME280;49334;37.766;-121.890;2023-05-09T11:56:40;99638.94;;;13.96;44.50
58977;BME280;49334;37.766;-121.890;2023-05-09T11:59:08;99641.33;;;13.25;45.51
58977;BME280;49334;37.766;-121.890;2023-05-09T12:01:37;99643.05;;;11.04;48.37
58977;BME280;49334;37.766;-121.890;2023-05-09T12:04:06;99638.91;;;13.53;45.20
58977;BME280;49334;37.766;-121.890;2023-05-09T12:06:36;99643.71;;;10.46;49.82
58977;BME280;49334;37.766;-121.890;2023-05-09T12:09:04;99642.84;;;11.42;48.18
58977;BME280;49334;37.766;-121.890;2023-05-09T12:11:33;99645.66;;;9.58;52.07
58977;BME280;49334;37.766;-121.890;2023-05-09T12:14:02;99639.26;;;12.50;46.75
58977;BME280;49334;37.766;-121.890;2023-05-09T12:16:31;99641.28;;;11.65;48.16
58977;BME280;49334;37.766;-121.890;2023-05-09T12:19:01;99641.69;;;12.75;46.83
58977;BME280;49334;37.766;-121.890;2023-05-09T12:21:29;99634.06;;;13.13;45.66
58977;BME280;49334;37.766;-121.890;2023-05-09T12:23:58;99634.95;;;11.75;48.04
58977;BME280;49334;37.766;-121.890;2023-05-09T12:26:28;99630.36;;;13.61;44.20
58977;BME280;49334;37.766;-121.890;2023-05-09T12:28:56;99630.90;;;13.77;43.80
58977;BME280;49334;37.766;-121.890;2023-05-09T12:31:25;99631.27;;;11.56;47.66
58977;BME280;49334;37.766;-121.890;2023-05-09T12:33:54;99631.58;;;11.98;46.68
58977;BME280;49334;37.766;-121.890;2023-05-09T12:36:23;99631.63;;;9.84;50.97
58977;BME280;49334;37.766;-121.890;2023-05-09T12:38:53;99626.98;;;9.71;52.00
58977;BME280;49334;37.766;-121.890;2023-05-09T12:41:22;99623.94;;;12.07;47.83
58977;BME280;49334;37.766;-121.890;2023-05-09T12:43:51;99620.47;;;12.74;46.64
58977;BME280;49334;37.766;-121.890;2023-05-09T12:46:20;99621.10;;;13.06;45.68